Time;durP1;ratioP1;P1;durP2;ratioP2;P2;SDS_P1;SDS_P2;PMS_P1;PMS_P2;Temp;Humidity;BMP_temperature;BMP_pressure;BME280_temperature;BME280_humidity;BME280_pressure;Samples;Min_cycle;Max_cycle;Signal;HPM_P1;HPM_P2
2021/07/25 00:04:51;;;;;;;16.50;7.18;;;18.10;99.90;;;;;;20739282;28;20677;-49
2021/07/25 00:14:52;;;;;;;16.58;6.68;;;18.10;99.90;;;;;;20743690;28;20053;-49
2021/07/25 00:25:07;;;;;;;16.15;7.32;;;18.00;99.90;;;;;;20734451;28;20797;-49
2021/07/25 00:35:09;;;;;;;18.30;8.55;;;18.00;99.90;;;;;;20738379;28;20068;-49
2021/07/25 00:45:10;;;;;;;21.30;8.93;;;17.90;99.90;;;;;;20731265;28;20493;-48
2021/07/25 00:55:13;;;;;;;27.52;11.40;;;18.00;99.90;;;;;;20687267;28;20048;-48
2021/07/25 01:05:48;;;;;;;21.40;9.52;;;18.10;99.90;;;;;;20746027;28;20382;-48
2021/07/25 01:15:50;;;;;;;24.65;11.02;;;18.20;99.90;;;;;;20699187;28;20077;-48
2021/07/25 01:25:57;;;;;;;21.33;9.07;;;18.20;99.90;;;;;;20730841;28;20049;-49
2021/07/25 01:35:59;;;;;;;22.08;8.90;;;18.20;99.90;;;;;;20730175;28;20175;-48
2021/07/25 01:46:01;;;;;;;22.80;9.43;;;18.20;99.90;;;;;;20732377;28;20485;-50
2021/07/25 01:56:02;;;;;;;20.08;9.20;;;18.20;99.90;;;;;;20694514;28;20563;-49
2021/07/25 02:06:03;;;;;;;19.20;9.70;;;18.10;99.90;;;;;;20709742;28;20490;-50
2021/07/25 02:16:05;;;;;;;21.30;10.02;;;18.00;99.90;;;;;;20742151;28;20041;-48
2021/07/25 02:26:06;;;;;;;24.48;10.85;;;17.90;99.90;;;;;;20721632;28;20501;-49
2021/07/25 02:36:13;;;;;;;27.75;10.82;;;17.90;99.90;;;;;;21585657;23;20594;-93
2021/07/25 02:47:35;;;;;;;21.55;9.52;;;17.90;99.90;;;;;;20805277;28;20041;-93
2021/07/25 02:58:10;;;;;;;23.95;10.52;;;17.80;99.90;;;;;;20809003;28;20038;-93
2021/07/25 03:08:58;;;;;;;19.52;8.15;;;17.70;99.90;;;;;;20779167;28;20049;-94
2021/07/25 03:20:01;;;;;;;21.20;9.70;;;17.60;99.90;;;;;;20735165;28;20055;-93
2021/07/25 03:31:03;;;;;;;20.92;9.25;;;17.50;99.90;;;;;;20751929;28;20044;-93
2021/07/25 03:41:55;;;;;;;21.27;8.88;;;17.40;99.90;;;;;;20697193;28;20109;-93
2021/07/25 03:52:34;;;;;;;23.48;9.68;;;17.40;99.90;;;;;;20690850;28;20057;-93
2021/07/25 04:03:12;;;;;;;22.63;9.40;;;17.70;99.90;;;;;;20717604;28;20074;-93
2021/07/25 04:14:18;;;;;;;18.80;8.27;;;17.80;99.90;;;;;;20678974;28;20525;-93
2021/07/25 04:25:02;;;;;;;19.13;7.15;;;17.80;99.90;;;;;;20698060;28;20053;-93
2021/07/25 04:35:48;;;;;;;14.65;6.80;;;17.70;99.90;;;;;;20732348;28;20053;-93
2021/07/25 04:47:09;;;;;;;16.02;6.65;;;17.70;99.90;;;;;;20636527;28;20057;-93
2021/07/25 04:58:17;;;;;;;13.48;7.15;;;17.80;99.90;;;;;;20673612;28;20041;-93
2021/07/25 05:09:00;;;;;;;13.75;5.88;;;17.90;99.90;;;;;;20724416;28;20049;-92
2021/07/25 05:19:48;;;;;;;14.23;5.03;;;18.40;99.90;;;;;;20699398;28;20065;-93
2021/07/25 05:30:23;;;;;;;12.80;4.47;;;18.50;99.90;;;;;;20735093;28;20042;-93
2021/07/25 05:41:16;;;;;;;8.02;3.45;;;18.50;99.90;;;;;;20702659;28;20060;-93
2021/07/25 05:51:58;;;;;;;9.73;3.70;;;18.50;99.90;;;;;;20814305;28;20052;-93
2021/07/25 06:03:18;;;;;;;6.15;3.28;;;18.60;99.90;;;;;;20800600;28;20102;-93
2021/07/25 06:14:34;;;;;;;6.60;3.10;;;18.70;99.90;;;;;;20765904;28;20049;-93
2021/07/25 06:25:30;;;;;;;7.20;3.25;;;18.70;99.90;;;;;;20783529;28;20430;-93
2021/07/25 06:37:09;;;;;;;6.53;3.20;;;19.00;99.90;;;;;;20772776;28;20049;-93
2021/07/25 06:59:28;;;;;;;5.93;2.40;;;19.90;99.90;;;;;;20768533;28;20045;-93
2021/07/25 07:10:39;;;;;;;7.70;2.75;;;20.20;99.90;;;;;;20818424;28;21058;-93
2021/07/25 07:22:29;;;;;;;5.95;2.42;;;20.30;99.90;;;;;;20373599;28;20501;-93
2021/07/25 07:33:55;;;;;;;9.55;3.40;;;20.50;99.90;;;;;;20494981;28;20071;-93
2021/07/25 07:44:38;;;;;;;6.75;3.08;;;20.70;99.90;;;;;;20644348;22;20455;-48
2021/07/25 07:54:40;;;;;;;7.80;3.35;;;21.00;99.90;;;;;;20862118;28;20059;-48
2021/07/25 08:04:41;;;;;;;7.05;2.95;;;21.40;99.90;;;;;;20856441;28;20127;-48
2021/07/25 08:14:42;;;;;;;6.90;2.97;;;21.50;99.90;;;;;;20866258;28;20049;-48
2021/07/25 08:24:44;;;;;;;11.38;3.92;;;21.60;99.90;;;;;;20858675;28;20045;-48
2021/07/25 08:34:45;;;;;;;7.70;2.92;;;22.10;99.90;;;;;;20866113;28;20049;-49
2021/07/25 08:44:48;;;;;;;6.53;2.92;;;22.60;99.90;;;;;;20827425;28;20640;-48
2021/07/25 08:54:50;;;;;;;6.53;3.38;;;22.90;99.90;;;;;;20858925;28;20059;-48
2021/07/25 09:04:53;;;;;;;6.85;3.00;;;23.00;99.90;;;;;;20872635;28;20041;-48
2021/07/25 09:14:57;;;;;;;6.30;2.80;;;23.30;99.90;;;;;;20863751;28;20064;-49
2021/07/25 09:24:59;;;;;;;7.25;3.50;;;23.80;99.90;;;;;;20859489;28;20045;-48
2021/07/25 09:35:00;;;;;;;7.60;3.72;;;23.60;99.90;;;;;;20862160;28;20044;-48
2021/07/25 09:45:02;;;;;;;7.72;3.70;;;23.60;99.90;;;;;;20853714;28;20076;-49
2021/07/25 09:55:06;;;;;;;10.38;4.70;;;23.70;99.90;;;;;;20853426;28;20052;-49
2021/07/25 10:05:13;;;;;;;6.28;3.25;;;24.20;99.90;;;;;;20854428;28;20033;-48
2021/07/25 10:15:16;;;;;;;8.57;3.55;;;24.70;99.90;;;;;;20831763;28;20032;-49
2021/07/25 10:25:22;;;;;;;6.85;3.00;;;25.10;99.90;;;;;;20794521;28;20037;-49
2021/07/25 10:35:25;;;;;;;7.47;3.45;;;25.50;99.90;;;;;;20850964;28;20051;-49
2021/07/25 10:45:26;;;;;;;6.07;2.85;;;26.00;99.90;;;;;;20847617;28;20057;-49
2021/07/25 11:06:07;;;;;;;6.82;3.38;;;25.80;99.90;;;;;;20847284;28;20041;-48
2021/07/25 11:16:27;;;;;;;5.07;2.65;;;25.00;99.90;;;;;;20862630;28;20052;-48
2021/07/25 11:26:36;;;;;;;4.13;2.05;;;24.70;99.90;;;;;;20873907;28;20127;-48
2021/07/25 11:36:38;;;;;;;4.22;2.08;;;24.70;99.90;;;;;;20843966;28;20041;-49
2021/07/25 11:46:42;;;;;;;6.50;2.78;;;25.60;99.90;;;;;;20837280;28;1104229;-48
2021/07/25 11:57:01;;;;;;;8.88;3.95;;;25.20;99.90;;;;;;20878055;28;20045;-49
2021/07/25 12:07:03;;;;;;;9.18;4.97;;;25.00;99.90;;;;;;20879899;28;20060;-49
2021/07/25 12:17:05;;;;;;;8.95;4.75;;;25.00;99.90;;;;;;20868599;28;20041;-49
2021/07/25 12:27:24;;;;;;;5.88;2.90;;;26.40;99.90;;;;;;20866876;28;20064;-48
2021/07/25 12:37:32;;;;;;;2.75;1.67;;;27.00;99.90;;;;;;20867891;28;20041;-49
2021/07/25 12:47:35;;;;;;;5.20;2.92;;;27.50;99.90;;;;;;20869354;28;20055;-49
2021/07/25 12:57:37;;;;;;;5.10;2.40;;;27.40;99.90;;;;;;20871081;28;20041;-49
2021/07/25 13:07:38;;;;;;;2.47;1.25;;;28.10;99.90;;;;;;20871654;28;20049;-49
2021/07/25 13:17:40;;;;;;;3.85;2.00;;;28.40;99.90;;;;;;20868865;28;20045;-49
2021/07/25 13:27:41;;;;;;;6.75;3.10;;;27.30;99.90;;;;;;20820098;28;20083;-49
2021/07/25 13:37:42;;;;;;;6.60;3.72;;;27.60;99.90;;;;;;20863644;28;20082;-49
2021/07/25 13:47:44;;;;;;;5.95;3.30;;;27.50;99.90;;;;;;20865208;28;20049;-49
2021/07/25 13:57:45;;;;;;;6.00;3.53;;;26.20;99.90;;;;;;20870044;28;20055;-49
2021/07/25 14:07:46;;;;;;;9.38;4.82;;;25.50;99.90;;;;;;20867332;28;20052;-49
2021/07/25 14:17:48;;;;;;;5.50;3.35;;;24.90;99.90;;;;;;20866304;28;20045;-49
2021/07/25 14:27:49;;;;;;;5.97;3.20;;;23.40;99.90;;;;;;20866670;28;20701;-49
2021/07/25 14:37:50;;;;;;;7.57;2.95;;;22.00;99.90;;;;;;20865978;28;20463;-50
2021/07/25 14:47:51;;;;;;;5.65;2.75;;;21.00;99.90;;;;;;20863916;28;20056;-50
2021/07/25 14:57:52;;;;;;;6.65;3.10;;;20.20;99.90;;;;;;20864165;28;20080;-50
2021/07/25 15:07:53;;;;;;;4.20;2.22;;;19.90;99.90;;;;;;20848254;28;20049;-49
2021/07/25 15:17:54;;;;;;;6.15;2.72;;;19.80;99.90;;;;;;20825539;28;20044;-50
2021/07/25 15:27:56;;;;;;;4.35;2.13;;;19.90;99.90;;;;;;20853980;28;20212;-50
2021/07/25 15:37:57;;;;;;;4.90;1.73;;;20.00;99.90;;;;;;20853163;28;20048;-49
2021/07/25 15:47:59;;;;;;;5.22;2.92;;;20.20;99.90;;;;;;20837364;28;20053;-50
2021/07/25 15:58:00;;;;;;;5.47;2.22;;;19.90;99.90;;;;;;20867438;28;20049;-50
2021/07/25 16:08:01;;;;;;;4.07;1.85;;;19.90;99.90;;;;;;20866368;28;20047;-50
2021/07/25 16:18:02;;;;;;;4.55;1.98;;;19.80;99.90;;;;;;20852770;28;20090;-50
2021/07/25 16:28:03;;;;;;;8.57;2.63;;;19.90;99.90;;;;;;20845587;28;20044;-50
2021/07/25 16:38:05;;;;;;;4.50;2.30;;;19.80;99.90;;;;;;20850641;28;20041;-50
2021/07/25 16:48:06;;;;;;;2.85;1.40;;;19.80;99.90;;;;;;20849809;28;20198;-50
2021/07/25 16:58:07;;;;;;;3.88;1.88;;;19.80;99.90;;;;;;20847852;28;20053;-50
2021/07/25 17:08:09;;;;;;;3.58;1.60;;;19.80;99.90;;;;;;20843617;28;20132;-50
2021/07/25 17:18:10;;;;;;;3.13;1.38;;;19.70;99.90;;;;;;20851764;28;20047;-50
2021/07/25 17:28:12;;;;;;;3.00;1.33;;;19.80;99.90;;;;;;20846502;28;20041;-50
2021/07/25 17:38:13;;;;;;;3.63;1.70;;;19.70;99.90;;;;;;20839218;28;20040;-50
2021/07/25 17:48:14;;;;;;;5.18;1.20;;;19.50;99.90;;;;;;20839137;28;20045;-50
2021/07/25 17:58:15;;;;;;;2.08;1.17;;;19.60;99.90;;;;;;20815814;28;20048;-50
2021/07/25 18:08:20;;;;;;;1.67;0.95;;;19.50;99.90;;;;;;20862646;28;20041;-50
2021/07/25 18:18:22;;;;;;;4.00;1.27;;;19.40;99.90;;;;;;20849932;28;20151;-50
2021/07/25 18:28:23;;;;;;;3.45;1.10;;;19.50;99.90;;;;;;20860773;28;20122;-50
2021/07/25 18:38:24;;;;;;;3.38;1.38;;;19.50;99.90;;;;;;20831414;28;20071;-50
2021/07/25 18:48:26;;;;;;;2.75;1.70;;;19.50;99.90;;;;;;20819260;28;20467;-50
2021/07/25 18:58:27;;;;;;;2.60;1.15;;;19.60;99.90;;;;;;20836508;28;20047;-50
2021/07/25 19:08:28;;;;;;;3.10;1.33;;;19.60;99.90;;;;;;20854490;28;20187;-50
2021/07/25 19:18:30;;;;;;;4.05;1.75;;;19.60;99.90;;;;;;20851080;28;20116;-50
2021/07/25 19:28:31;;;;;;;4.15;1.95;;;19.60;99.90;;;;;;20866475;28;20140;-50
2021/07/25 19:38:32;;;;;;;5.78;2.20;;;19.70;99.90;;;;;;20860416;28;20146;-50
2021/07/25 19:48:37;;;;;;;4.10;2.00;;;19.70;99.90;;;;;;20865065;28;20049;-50
2021/07/25 19:58:38;;;;;;;3.88;2.03;;;19.70;99.90;;;;;;20854374;28;20041;-50
2021/07/25 20:08:40;;;;;;;7.35;3.25;;;19.80;99.90;;;;;;20857976;28;20118;-50
2021/07/25 20:18:41;;;;;;;4.53;2.47;;;19.70;99.90;;;;;;20824949;28;20041;-50
2021/07/25 20:28:42;;;;;;;8.57;3.15;;;19.70;99.90;;;;;;20834393;28;20049;-50
2021/07/25 20:38:44;;;;;;;5.80;2.35;;;19.70;99.90;;;;;;20835374;28;20144;-50
2021/07/25 20:48:45;;;;;;;4.25;1.80;;;19.60;99.90;;;;;;20851026;28;20063;-50
2021/07/25 20:58:47;;;;;;;3.05;1.30;;;19.40;99.90;;;;;;20839141;28;20037;-50
2021/07/25 21:08:48;;;;;;;3.10;1.30;;;19.20;99.90;;;;;;20820854;28;20053;-50
2021/07/25 21:18:49;;;;;;;2.85;1.40;;;19.10;99.90;;;;;;20852377;28;20067;-50
2021/07/25 21:28:50;;;;;;;2.42;1.38;;;19.00;99.90;;;;;;20865579;28;20073;-50
2021/07/25 21:38:52;;;;;;;3.63;1.70;;;19.00;99.90;;;;;;20854781;28;20037;-50
2021/07/25 21:48:53;;;;;;;3.97;1.67;;;18.90;99.90;;;;;;20847791;28;20060;-50
2021/07/25 21:58:57;;;;;;;3.88;1.30;;;18.80;99.90;;;;;;20849718;28;20144;-49
2021/07/25 22:08:59;;;;;;;3.67;1.73;;;18.70;99.90;;;;;;20834969;28;20045;-50
2021/07/25 22:19:00;;;;;;;3.50;1.50;;;18.80;99.90;;;;;;20848943;28;20033;-50
2021/07/25 22:29:01;;;;;;;2.60;1.50;;;18.90;99.90;;;;;;20845065;28;20091;-50
2021/07/25 22:39:03;;;;;;;3.40;1.40;;;18.80;99.90;;;;;;20843236;28;20049;-47
2021/07/25 22:49:04;;;;;;;4.43;2.15;;;18.60;99.90;;;;;;20844137;28;20052;-47
2021/07/25 22:59:06;;;;;;;3.97;1.98;;;18.50;99.90;;;;;;20841407;28;20114;-49
2021/07/25 23:09:07;;;;;;;3.80;1.65;;;18.30;99.90;;;;;;20808387;28;20053;-49
2021/07/25 23:19:08;;;;;;;4.32;2.42;;;18.10;99.90;;;;;;20855086;28;20487;-50
2021/07/25 23:29:09;;;;;;;3.33;1.50;;;18.00;99.90;;;;;;20860281;28;20059;-50
2021/07/25 23:39:10;;;;;;;3.97;2.20;;;18.00;99.90;;;;;;20854958;28;20060;-50
2021/07/25 23:49:11;;;;;;;4.55;2.30;;;18.00;99.90;;;;;;20857500;28;20048;-50
2021/07/25 23:59:15;;;;;;;4.05;2.03;;;17.90;99.90;;;;;;20861465;28;20044;-50
